sensor_id;sensor_type;location;lat;lon;timestamp;temperature;humidity
17252;DHT22;8742;51.716;8.790;2022-10-03T00:01:46;10.80;99.90
17252;DHT22;8742;51.716;8.790;2022-10-03T00:04:30;10.80;99.90
17252;DHT22;8742;51.716;8.790;2022-10-03T00:07:12;10.70;99.90
17252;DHT22;8742;51.716;8.790;2022-10-03T00:09:55;10.80;99.90
17252;DHT22;8742;51.716;8.790;2022-10-03T00:12:39;10.70;99.90
17252;DHT22;8742;51.716;8.790;2022-10-03T00:15:16;10.70;99.90
17252;DHT22;8742;51.716;8.790;2022-10-03T00:17:58;10.70;99.90
17252;DHT22;8742;51.716;8.790;2022-10-03T00:20:44;10.70;99.90
17252;DHT22;8742;51.716;8.790;2022-10-03T00:23:17;10.70;99.90
17252;DHT22;8742;51.716;8.790;2022-10-03T00:25:54;10.60;99.90
17252;DHT22;8742;51.716;8.790;2022-10-03T00:28:44;10.60;99.90
17252;DHT22;8742;51.716;8.790;2022-10-03T00:31:17;10.60;99.90
17252;DHT22;8742;51.716;8.790;2022-10-03T00:33:59;10.60;99.90
17252;DHT22;8742;51.716;8.790;2022-10-03T00:36:35;10.60;99.90
17252;DHT22;8742;51.716;8.790;2022-10-03T00:39:31;10.60;99.90
17252;DHT22;8742;51.716;8.790;2022-10-03T00:45:44;10.60;99.90
17252;DHT22;8742;51.716;8.790;2022-10-03T00:51:31;10.60;99.90
17252;DHT22;8742;51.716;8.790;2022-10-03T00:54:15;10.60;99.90
17252;DHT22;8742;51.716;8.790;2022-10-03T00:57:02;10.60;99.90
17252;DHT22;8742;51.716;8.790;2022-10-03T00:59:46;10.70;99.90
17252;DHT22;8742;51.716;8.790;2022-10-03T01:02:25;10.70;99.90
17252;DHT22;8742;51.716;8.790;2022-10-03T01:05:01;10.70;99.90
17252;DHT22;8742;51.716;8.790;2022-10-03T01:07:52;10.70;99.90
17252;DHT22;8742;51.716;8.790;2022-10-03T01:10:24;10.80;99.90
17252;DHT22;8742;51.716;8.790;2022-10-03T01:13:16;10.80;99.90
17252;DHT22;8742;51.716;8.790;2022-10-03T01:15:50;10.80;99.90
17252;DHT22;8742;51.716;8.790;2022-10-03T01:18:30;10.80;99.90
17252;DHT22;8742;51.716;8.790;2022-10-03T01:21:07;10.80;99.90
17252;DHT22;8742;51.716;8.790;2022-10-03T01:23:58;10.90;99.90
17252;DHT22;8742;51.716;8.790;2022-10-03T01:26:54;10.90;99.90
17252;DHT22;8742;51.716;8.790;2022-10-03T01:29:31;10.90;99.90
17252;DHT22;8742;51.716;8.790;2022-10-03T01:32:24;10.90;99.90
17252;DHT22;8742;51.716;8.790;2022-10-03T01:34:59;11.00;99.90
17252;DHT22;8742;51.716;8.790;2022-10-03T01:37:35;11.00;99.90
17252;DHT22;8742;51.716;8.790;2022-10-03T01:40:12;11.00;99.90
17252;DHT22;8742;51.716;8.790;2022-10-03T01:42:51;11.00;99.90
17252;DHT22;8742;51.716;8.790;2022-10-03T01:45:30;11.00;99.90
17252;DHT22;8742;51.716;8.790;2022-10-03T01:48:05;11.00;99.90
17252;DHT22;8742;51.716;8.790;2022-10-03T01:50:37;11.00;99.90
17252;DHT22;8742;51.716;8.790;2022-10-03T01:53:14;11.00;99.90
17252;DHT22;8742;51.716;8.790;2022-10-03T01:55:55;11.00;99.90
17252;DHT22;8742;51.716;8.790;2022-10-03T01:58:28;11.00;99.90
17252;DHT22;8742;51.716;8.790;2022-10-03T02:01:03;11.00;99.90
17252;DHT22;8742;51.716;8.790;2022-10-03T02:03:37;11.10;99.90
17252;DHT22;8742;51.716;8.790;2022-10-03T02:06:16;11.10;99.90
17252;DHT22;8742;51.716;8.790;2022-10-03T02:08:51;11.10;99.90
17252;DHT22;8742;51.716;8.790;2022-10-03T02:11:29;11.10;99.90
17252;DHT22;8742;51.716;8.790;2022-10-03T02:14:04;11.10;99.90
17252;DHT22;8742;51.716;8.790;2022-10-03T02:16:41;11.10;99.90
17252;DHT22;8742;51.716;8.790;2022-10-03T02:19:14;11.10;99.90
17252;DHT22;8742;51.716;8.790;2022-10-03T02:21:47;11.10;99.90
17252;DHT22;8742;51.716;8.790;2022-10-03T02:24:26;11.10;99.90
17252;DHT22;8742;51.716;8.790;2022-10-03T02:27:19;11.10;99.90
17252;DHT22;8742;51.716;8.790;2022-10-03T02:30:06;11.10;99.90
17252;DHT22;8742;51.716;8.790;2022-10-03T02:33:03;11.10;99.90
17252;DHT22;8742;51.716;8.790;2022-10-03T02:47:54;11.10;99.90
17252;DHT22;8742;51.716;8.790;2022-10-03T02:50:57;11.10;99.90
17252;DHT22;8742;51.716;8.790;2022-10-03T03:00:05;11.10;99.90
17252;DHT22;8742;51.716;8.790;2022-10-03T03:03:04;11.00;99.90
17252;DHT22;8742;51.716;8.790;2022-10-03T03:17:53;11.00;99.90
17252;DHT22;8742;51.716;8.790;2022-10-03T03:20:35;11.00;99.90
17252;DHT22;8742;51.716;8.790;2022-10-03T03:23:28;11.00;99.90
17252;DHT22;8742;51.716;8.790;2022-10-03T03:26:23;11.00;99.90
17252;DHT22;8742;51.716;8.790;2022-10-03T03:29:00;11.00;99.90
17252;DHT22;8742;51.716;8.790;2022-10-03T03:31:34;11.00;99.90
17252;DHT22;8742;51.716;8.790;2022-10-03T03:34:12;11.00;99.90
17252;DHT22;8742;51.716;8.790;2022-10-03T03:36:49;11.00;99.90
17252;DHT22;8742;51.716;8.790;2022-10-03T03:39:31;11.00;99.90
17252;DHT22;8742;51.716;8.790;2022-10-03T03:42:24;11.00;99.90
17252;DHT22;8742;51.716;8.790;2022-10-03T03:45:07;11.00;99.90
17252;DHT22;8742;51.716;8.790;2022-10-03T03:47:56;11.00;99.90
17252;DHT22;8742;51.716;8.790;2022-10-03T03:50:43;11.00;99.90
17252;DHT22;8742;51.716;8.790;2022-10-03T03:53:34;11.00;99.90
17252;DHT22;8742;51.716;8.790;2022-10-03T03:56:23;11.00;99.90
17252;DHT22;8742;51.716;8.790;2022-10-03T03:59:03;11.00;99.90
17252;DHT22;8742;51.716;8.790;2022-10-03T04:01:51;11.00;99.90
17252;DHT22;8742;51.716;8.790;2022-10-03T04:04:36;11.00;99.90
17252;DHT22;8742;51.716;8.790;2022-10-03T04:07:15;11.00;99.90
17252;DHT22;8742;51.716;8.790;2022-10-03T04:10:06;11.00;99.90
17252;DHT22;8742;51.716;8.790;2022-10-03T04:12:49;11.00;99.90
17252;DHT22;8742;51.716;8.790;2022-10-03T04:15:35;11.00;99.90
17252;DHT22;8742;51.716;8.790;2022-10-03T04:18:22;11.00;99.90
17252;DHT22;8742;51.716;8.790;2022-10-03T04:21:33;11.00;99.90
17252;DHT22;8742;51.716;8.790;2022-10-03T04:27:18;11.00;99.90
17252;DHT22;8742;51.716;8.790;2022-10-03T04:29:51;11.00;99.90
17252;DHT22;8742;51.716;8.790;2022-10-03T04:35:37;11.00;99.90
17252;DHT22;8742;51.716;8.790;2022-10-03T04:38:19;11.00;99.90
17252;DHT22;8742;51.716;8.790;2022-10-03T04:40:56;11.00;99.90
17252;DHT22;8742;51.716;8.790;2022-10-03T04:43:33;11.00;99.90
17252;DHT22;8742;51.716;8.790;2022-10-03T04:46:15;11.00;99.90
17252;DHT22;8742;51.716;8.790;2022-10-03T04:48:50;11.00;99.90
17252;DHT22;8742;51.716;8.790;2022-10-03T04:51:28;11.00;99.90
17252;DHT22;8742;51.716;8.790;2022-10-03T04:54:02;11.00;99.90
17252;DHT22;8742;51.716;8.790;2022-10-03T04:56:56;11.00;99.90
17252;DHT22;8742;51.716;8.790;2022-10-03T04:59:46;11.00;99.90
17252;DHT22;8742;51.716;8.790;2022-10-03T05:02:29;10.90;99.90
17252;DHT22;8742;51.716;8.790;2022-10-03T05:07:54;10.90;99.90
17252;DHT22;8742;51.716;8.790;2022-10-03T05:10:45;10.90;99.90
17252;DHT22;8742;51.716;8.790;2022-10-03T05:13:20;10.90;99.90
17252;DHT22;8742;51.716;8.790;2022-10-03T05:15:55;10.90;99.90
17252;DHT22;8742;51.716;8.790;2022-10-03T05:18:31;10.90;99.90
17252;DHT22;8742;51.716;8.790;2022-10-03T05:21:07;10.90;99.90
17252;DHT22;8742;51.716;8.790;2022-10-03T05:23:48;10.90;99.90
17252;DHT22;8742;51.716;8.790;2022-10-03T05:26:22;10.90;99.90
17252;DHT22;8742;51.716;8.790;2022-10-03T05:28:57;11.00;99.90
17252;DHT22;8742;51.716;8.790;2022-10-03T05:31:42;10.90;99.90
17252;DHT22;8742;51.716;8.790;2022-10-03T05:34:20;10.90;99.90
17252;DHT22;8742;51.716;8.790;2022-10-03T05:37:06;10.90;99.90
17252;DHT22;8742;51.716;8.790;2022-10-03T05:39:43;10.90;99.90
17252;DHT22;8742;51.716;8.790;2022-10-03T05:42:22;10.90;99.90
17252;DHT22;8742;51.716;8.790;2022-10-03T05:45:02;10.90;99.90
17252;DHT22;8742;51.716;8.790;2022-10-03T05:47:32;10.90;99.90
17252;DHT22;8742;51.716;8.790;2022-10-03T05:50:48;10.90;99.90
17252;DHT22;8742;51.716;8.790;2022-10-03T05:53:50;10.90;99.90
17252;DHT22;8742;51.716;8.790;2022-10-03T05:56:34;10.90;99.90
17252;DHT22;8742;51.716;8.790;2022-10-03T05:59:29;10.90;99.90
17252;DHT22;8742;51.716;8.790;2022-10-03T06:05:28;11.00;99.90
17252;DHT22;8742;51.716;8.790;2022-10-03T06:10:57;11.00;99.90
17252;DHT22;8742;51.716;8.790;2022-10-03T06:13:39;11.00;99.90
17252;DHT22;8742;51.716;8.790;2022-10-03T06:16:21;10.90;99.90
17252;DHT22;8742;51.716;8.790;2022-10-03T06:19:03;11.00;99.90
17252;DHT22;8742;51.716;8.790;2022-10-03T06:22:08;11.00;99.90
17252;DHT22;8742;51.716;8.790;2022-10-03T06:25:06;10.90;99.90
17252;DHT22;8742;51.716;8.790;2022-10-03T06:31:26;11.00;99.90
17252;DHT22;8742;51.716;8.790;2022-10-03T06:34:35;11.00;99.90
17252;DHT22;8742;51.716;8.790;2022-10-03T06:40:45;11.00;99.90
17252;DHT22;8742;51.716;8.790;2022-10-03T06:43:54;11.00;99.90
17252;DHT22;8742;51.716;8.790;2022-10-03T06:47:11;11.00;99.90
17252;DHT22;8742;51.716;8.790;2022-10-03T06:50:04;11.00;99.90
17252;DHT22;8742;51.716;8.790;2022-10-03T06:52:51;11.00;99.90
17252;DHT22;8742;51.716;8.790;2022-10-03T06:55:59;11.00;99.90
17252;DHT22;8742;51.716;8.790;2022-10-03T06:59:00;11.10;99.90
17252;DHT22;8742;51.716;8.790;2022-10-03T07:01:57;11.10;99.90
17252;DHT22;8742;51.716;8.790;2022-10-03T07:07:54;11.10;99.90
17252;DHT22;8742;51.716;8.790;2022-10-03T07:10:44;11.20;99.90
17252;DHT22;8742;51.716;8.790;2022-10-03T07:13:32;11.20;99.90
17252;DHT22;8742;51.716;8.790;2022-10-03T07:16:18;11.20;99.90
17252;DHT22;8742;51.716;8.790;2022-10-03T07:25:38;11.20;99.90
17252;DHT22;8742;51.716;8.790;2022-10-03T07:28:36;11.20;99.90
17252;DHT22;8742;51.716;8.790;2022-10-03T07:31:17;11.20;99.90
17252;DHT22;8742;51.716;8.790;2022-10-03T07:34:12;11.20;99.90
17252;DHT22;8742;51.716;8.790;2022-10-03T07:37:07;11.20;99.90
17252;DHT22;8742;51.716;8.790;2022-10-03T07:40:15;11.20;99.90
17252;DHT22;8742;51.716;8.790;2022-10-03T07:46:13;11.20;99.90
17252;DHT22;8742;51.716;8.790;2022-10-03T07:49:14;11.20;99.90
17252;DHT22;8742;51.716;8.790;2022-10-03T07:51:57;11.20;99.90
17252;DHT22;8742;51.716;8.790;2022-10-03T07:54:57;11.20;99.90
17252;DHT22;8742;51.716;8.790;2022-10-03T07:58:07;11.20;99.90
17252;DHT22;8742;51.716;8.790;2022-10-03T08:00:53;11.20;99.90
17252;DHT22;8742;51.716;8.790;2022-10-03T08:03:58;11.20;99.90
17252;DHT22;8742;51.716;8.790;2022-10-03T08:06:36;11.30;99.90
17252;DHT22;8742;51.716;8.790;2022-10-03T08:09:20;11.30;99.90
17252;DHT22;8742;51.716;8.790;2022-10-03T08:14:56;11.30;99.90
17252;DHT22;8742;51.716;8.790;2022-10-03T08:20:53;11.40;99.90
17252;DHT22;8742;51.716;8.790;2022-10-03T08:24:02;11.40;99.90
17252;DHT22;8742;51.716;8.790;2022-10-03T08:26:51;11.40;99.90
17252;DHT22;8742;51.716;8.790;2022-10-03T08:30:03;11.40;99.90
17252;DHT22;8742;51.716;8.790;2022-10-03T08:32:55;11.40;99.90
17252;DHT22;8742;51.716;8.790;2022-10-03T08:35:40;11.40;99.90
17252;DHT22;8742;51.716;8.790;2022-10-03T08:38:36;11.50;99.90
17252;DHT22;8742;51.716;8.790;2022-10-03T08:41:34;11.50;99.90
17252;DHT22;8742;51.716;8.790;2022-10-03T08:44:51;11.50;99.90
17252;DHT22;8742;51.716;8.790;2022-10-03T08:50:46;11.60;99.90
17252;DHT22;8742;51.716;8.790;2022-10-03T08:53:45;11.70;99.90
17252;DHT22;8742;51.716;8.790;2022-10-03T08:56:19;11.70;99.90
17252;DHT22;8742;51.716;8.790;2022-10-03T08:59:14;11.80;99.90
17252;DHT22;8742;51.716;8.790;2022-10-03T09:05:32;11.90;99.90
17252;DHT22;8742;51.716;8.790;2022-10-03T09:08:34;11.90;99.90
17252;DHT22;8742;51.716;8.790;2022-10-03T09:11:28;12.00;99.90
17252;DHT22;8742;51.716;8.790;2022-10-03T09:14:21;12.00;99.90
17252;DHT22;8742;51.716;8.790;2022-10-03T09:17:04;12.10;99.90
17252;DHT22;8742;51.716;8.790;2022-10-03T09:23:27;12.20;99.90
17252;DHT22;8742;51.716;8.790;2022-10-03T09:26:53;12.20;99.90
17252;DHT22;8742;51.716;8.790;2022-10-03T09:29:51;12.30;99.90
17252;DHT22;8742;51.716;8.790;2022-10-03T09:32:55;12.30;99.90
17252;DHT22;8742;51.716;8.790;2022-10-03T09:35:36;12.40;99.90
17252;DHT22;8742;51.716;8.790;2022-10-03T09:38:43;12.50;99.90
17252;DHT22;8742;51.716;8.790;2022-10-03T09:41:35;12.60;99.90
17252;DHT22;8742;51.716;8.790;2022-10-03T09:44:22;12.70;99.90
17252;DHT22;8742;51.716;8.790;2022-10-03T09:50:25;12.80;99.90
17252;DHT22;8742;51.716;8.790;2022-10-03T09:53:22;12.90;99.90
17252;DHT22;8742;51.716;8.790;2022-10-03T09:56:16;13.00;99.90
17252;DHT22;8742;51.716;8.790;2022-10-03T09:59:10;13.00;99.90
17252;DHT22;8742;51.716;8.790;2022-10-03T10:01:43;13.10;99.90
17252;DHT22;8742;51.716;8.790;2022-10-03T10:04:40;13.10;99.90
17252;DHT22;8742;51.716;8.790;2022-10-03T10:07:36;13.20;99.90
17252;DHT22;8742;51.716;8.790;2022-10-03T10:10:29;13.30;99.90
17252;DHT22;8742;51.716;8.790;2022-10-03T10:13:15;13.30;99.90
17252;DHT22;8742;51.716;8.790;2022-10-03T10:16:13;13.40;99.90
17252;DHT22;8742;51.716;8.790;2022-10-03T10:21:56;13.50;99.90
17252;DHT22;8742;51.716;8.790;2022-10-03T10:24:51;13.60;99.90
17252;DHT22;8742;51.716;8.790;2022-10-03T10:30:50;13.80;99.90
17252;DHT22;8742;51.716;8.790;2022-10-03T10:40:13;14.00;99.90
17252;DHT22;8742;51.716;8.790;2022-10-03T10:43:10;14.10;99.90
17252;DHT22;8742;51.716;8.790;2022-10-03T10:49:24;14.20;99.90
17252;DHT22;8742;51.716;8.790;2022-10-03T11:11:19;15.40;99.90
17252;DHT22;8742;51.716;8.790;2022-10-03T11:26:35;15.90;99.90
17252;DHT22;8742;51.716;8.790;2022-10-03T11:32:25;16.20;99.90
17252;DHT22;8742;51.716;8.790;2022-10-03T11:35:43;16.30;99.90
17252;DHT22;8742;51.716;8.790;2022-10-03T11:38:20;16.40;99.90
17252;DHT22;8742;51.716;8.790;2022-10-03T11:40:57;16.40;99.90
17252;DHT22;8742;51.716;8.790;2022-10-03T11:43:50;16.40;99.90
17252;DHT22;8742;51.716;8.790;2022-10-03T11:46:32;16.30;99.90
17252;DHT22;8742;51.716;8.790;2022-10-03T11:49:09;16.20;99.90
17252;DHT22;8742;51.716;8.790;2022-10-03T11:51:43;16.10;99.90
17252;DHT22;8742;51.716;8.790;2022-10-03T11:54:22;16.10;99.90
17252;DHT22;8742;51.716;8.790;2022-10-03T11:56:58;16.00;99.90
17252;DHT22;8742;51.716;8.790;2022-10-03T11:59:52;16.00;99.90
17252;DHT22;8742;51.716;8.790;2022-10-03T12:02:45;16.00;99.90
17252;DHT22;8742;51.716;8.790;2022-10-03T12:05:21;16.00;99.90
17252;DHT22;8742;51.716;8.790;2022-10-03T12:08:01;16.00;99.90
17252;DHT22;8742;51.716;8.790;2022-10-03T12:10:58;16.00;99.90
17252;DHT22;8742;51.716;8.790;2022-10-03T12:13:36;16.10;99.90
17252;DHT22;8742;51.716;8.790;2022-10-03T12:16:13;16.10;99.90
17252;DHT22;8742;51.716;8.790;2022-10-03T12:18:55;16.10;99.90
17252;DHT22;8742;51.716;8.790;2022-10-03T12:21:32;16.20;99.90
17252;DHT22;8742;51.716;8.790;2022-10-03T12:24:17;16.30;99.90
17252;DHT22;8742;51.716;8.790;2022-10-03T12:26:54;16.30;99.90
17252;DHT22;8742;51.716;8.790;2022-10-03T12:29:25;16.40;99.90
17252;DHT22;8742;51.716;8.790;2022-10-03T12:32:15;16.40;99.90
17252;DHT22;8742;51.716;8.790;2022-10-03T12:34:48;16.50;99.90
17252;DHT22;8742;51.716;8.790;2022-10-03T12:37:31;16.60;99.90
17252;DHT22;8742;51.716;8.790;2022-10-03T12:40:04;16.70;99.90
17252;DHT22;8742;51.716;8.790;2022-10-03T12:42:39;16.80;99.90
17252;DHT22;8742;51.716;8.790;2022-10-03T12:45:13;16.80;99.90
17252;DHT22;8742;51.716;8.790;2022-10-03T12:47:57;16.80;99.90
17252;DHT22;8742;51.716;8.790;2022-10-03T12:50:37;16.70;99.90
17252;DHT22;8742;51.716;8.790;2022-10-03T12:53:24;16.50;99.90
17252;DHT22;8742;51.716;8.790;2022-10-03T12:56:12;16.50;99.90
17252;DHT22;8742;51.716;8.790;2022-10-03T12:58:50;16.40;99.90
17252;DHT22;8742;51.716;8.790;2022-10-03T13:01:26;16.40;99.90
17252;DHT22;8742;51.716;8.790;2022-10-03T13:03:59;16.40;99.90
17252;DHT22;8742;51.716;8.790;2022-10-03T13:06:38;16.50;99.90
17252;DHT22;8742;51.716;8.790;2022-10-03T13:09:21;16.50;99.90
17252;DHT22;8742;51.716;8.790;2022-10-03T13:12:00;16.50;99.90
17252;DHT22;8742;51.716;8.790;2022-10-03T13:14:44;16.40;99.90
17252;DHT22;8742;51.716;8.790;2022-10-03T13:17:36;16.40;99.90
17252;DHT22;8742;51.716;8.790;2022-10-03T13:20:15;16.30;99.90
17252;DHT22;8742;51.716;8.790;2022-10-03T13:22:49;16.20;99.90
17252;DHT22;8742;51.716;8.790;2022-10-03T13:25:21;16.10;99.90
17252;DHT22;8742;51.716;8.790;2022-10-03T13:27:54;16.00;99.90
17252;DHT22;8742;51.716;8.790;2022-10-03T13:30:27;16.00;99.90
17252;DHT22;8742;51.716;8.790;2022-10-03T13:32:58;15.90;99.90
17252;DHT22;8742;51.716;8.790;2022-10-03T13:35:37;16.00;99.90
17252;DHT22;8742;51.716;8.790;2022-10-03T13:38:42;16.10;99.90
17252;DHT22;8742;51.716;8.790;2022-10-03T13:41:22;16.30;99.90
17252;DHT22;8742;51.716;8.790;2022-10-03T13:43:57;16.50;99.90
17252;DHT22;8742;51.716;8.790;2022-10-03T13:46:30;16.60;99.90
17252;DHT22;8742;51.716;8.790;2022-10-03T13:49:00;16.80;99.90
17252;DHT22;8742;51.716;8.790;2022-10-03T13:51:38;16.90;99.90
17252;DHT22;8742;51.716;8.790;2022-10-03T13:54:13;17.00;99.90
17252;DHT22;8742;51.716;8.790;2022-10-03T13:56:53;17.10;99.90
17252;DHT22;8742;51.716;8.790;2022-10-03T13:59:33;17.20;99.90
17252;DHT22;8742;51.716;8.790;2022-10-03T14:02:12;17.30;99.90
17252;DHT22;8742;51.716;8.790;2022-10-03T14:04:53;17.30;99.90
17252;DHT22;8742;51.716;8.790;2022-10-03T14:07:31;17.30;99.90
17252;DHT22;8742;51.716;8.790;2022-10-03T14:13:04;17.10;99.90
17252;DHT22;8742;51.716;8.790;2022-10-03T14:15:43;17.10;99.90
17252;DHT22;8742;51.716;8.790;2022-10-03T14:18:21;17.00;99.90
17252;DHT22;8742;51.716;8.790;2022-10-03T14:21:28;16.90;99.90
17252;DHT22;8742;51.716;8.790;2022-10-03T14:24:10;16.80;99.90
17252;DHT22;8742;51.716;8.790;2022-10-03T14:26:44;16.70;99.90
17252;DHT22;8742;51.716;8.790;2022-10-03T14:29:19;16.60;99.90
17252;DHT22;8742;51.716;8.790;2022-10-03T14:31:55;16.60;99.90
17252;DHT22;8742;51.716;8.790;2022-10-03T14:34:43;16.60;99.90
17252;DHT22;8742;51.716;8.790;2022-10-03T14:37:23;16.50;99.90
17252;DHT22;8742;51.716;8.790;2022-10-03T14:40:02;16.50;99.90
17252;DHT22;8742;51.716;8.790;2022-10-03T14:42:45;16.50;99.90
17252;DHT22;8742;51.716;8.790;2022-10-03T14:45:16;16.40;99.90
17252;DHT22;8742;51.716;8.790;2022-10-03T14:47:48;16.30;99.90
17252;DHT22;8742;51.716;8.790;2022-10-03T14:50:21;16.20;99.90
17252;DHT22;8742;51.716;8.790;2022-10-03T14:52:51;16.10;99.90
17252;DHT22;8742;51.716;8.790;2022-10-03T14:55:30;16.00;99.90
17252;DHT22;8742;51.716;8.790;2022-10-03T14:58:01;15.90;99.90
17252;DHT22;8742;51.716;8.790;2022-10-03T15:00:37;15.90;99.90
17252;DHT22;8742;51.716;8.790;2022-10-03T15:03:23;15.80;99.90
17252;DHT22;8742;51.716;8.790;2022-10-03T15:06:18;15.70;99.90
17252;DHT22;8742;51.716;8.790;2022-10-03T15:08:48;15.60;99.90
17252;DHT22;8742;51.716;8.790;2022-10-03T15:11:23;15.50;99.90
17252;DHT22;8742;51.716;8.790;2022-10-03T15:13:54;15.50;99.90
17252;DHT22;8742;51.716;8.790;2022-10-03T15:16:23;15.40;99.90
17252;DHT22;8742;51.716;8.790;2022-10-03T15:18:52;15.40;99.90
17252;DHT22;8742;51.716;8.790;2022-10-03T15:21:21;15.30;99.90
17252;DHT22;8742;51.716;8.790;2022-10-03T15:23:53;15.30;99.90
17252;DHT22;8742;51.716;8.790;2022-10-03T15:26:24;15.30;99.90
17252;DHT22;8742;51.716;8.790;2022-10-03T15:28:53;15.20;99.90
17252;DHT22;8742;51.716;8.790;2022-10-03T15:31:33;15.20;99.90
17252;DHT22;8742;51.716;8.790;2022-10-03T15:34:02;15.20;99.90
17252;DHT22;8742;51.716;8.790;2022-10-03T15:36:33;15.20;99.90
17252;DHT22;8742;51.716;8.790;2022-10-03T15:39:05;15.10;99.90
17252;DHT22;8742;51.716;8.790;2022-10-03T15:41:46;15.10;99.90
17252;DHT22;8742;51.716;8.790;2022-10-03T15:44:17;15.10;99.90
17252;DHT22;8742;51.716;8.790;2022-10-03T15:46:49;15.10;99.90
17252;DHT22;8742;51.716;8.790;2022-10-03T15:49:20;15.10;99.90
17252;DHT22;8742;51.716;8.790;2022-10-03T15:51:52;15.00;99.90
17252;DHT22;8742;51.716;8.790;2022-10-03T15:54:22;15.00;99.90
17252;DHT22;8742;51.716;8.790;2022-10-03T15:56:53;15.00;99.90
17252;DHT22;8742;51.716;8.790;2022-10-03T15:59:24;15.00;99.90
17252;DHT22;8742;51.716;8.790;2022-10-03T16:01:54;14.90;99.90
17252;DHT22;8742;51.716;8.790;2022-10-03T16:04:23;14.90;99.90
17252;DHT22;8742;51.716;8.790;2022-10-03T16:06:58;14.90;99.90
17252;DHT22;8742;51.716;8.790;2022-10-03T16:09:31;14.90;99.90
17252;DHT22;8742;51.716;8.790;2022-10-03T16:12:38;14.90;99.90
17252;DHT22;8742;51.716;8.790;2022-10-03T16:15:17;14.80;99.90
17252;DHT22;8742;51.716;8.790;2022-10-03T16:17:49;14.80;99.90
17252;DHT22;8742;51.716;8.790;2022-10-03T16:20:20;14.80;99.90
17252;DHT22;8742;51.716;8.790;2022-10-03T16:22:50;14.70;99.90
17252;DHT22;8742;51.716;8.790;2022-10-03T16:25:21;14.70;99.90
17252;DHT22;8742;51.716;8.790;2022-10-03T16:27:55;14.70;99.90
17252;DHT22;8742;51.716;8.790;2022-10-03T16:30:26;14.60;99.90
17252;DHT22;8742;51.716;8.790;2022-10-03T16:33:02;14.60;99.90
17252;DHT22;8742;51.716;8.790;2022-10-03T16:35:34;14.60;99.90
17252;DHT22;8742;51.716;8.790;2022-10-03T16:38:05;14.60;99.90
17252;DHT22;8742;51.716;8.790;2022-10-03T16:40:34;14.50;99.90
17252;DHT22;8742;51.716;8.790;2022-10-03T16:43:04;14.50;99.90
17252;DHT22;8742;51.716;8.790;2022-10-03T16:45:40;14.40;99.90
17252;DHT22;8742;51.716;8.790;2022-10-03T16:48:11;14.40;99.90
17252;DHT22;8742;51.716;8.790;2022-10-03T16:50:58;14.30;99.90
17252;DHT22;8742;51.716;8.790;2022-10-03T16:53:27;14.30;99.90
17252;DHT22;8742;51.716;8.790;2022-10-03T16:55:57;14.20;99.90
17252;DHT22;8742;51.716;8.790;2022-10-03T16:58:29;14.20;99.90
17252;DHT22;8742;51.716;8.790;2022-10-03T17:01:00;14.10;99.90
17252;DHT22;8742;51.716;8.790;2022-10-03T17:03:30;14.10;99.90
17252;DHT22;8742;51.716;8.790;2022-10-03T17:05:59;14.00;99.90
17252;DHT22;8742;51.716;8.790;2022-10-03T17:08:30;13.90;99.90
17252;DHT22;8742;51.716;8.790;2022-10-03T17:11:01;13.90;99.90
17252;DHT22;8742;51.716;8.790;2022-10-03T17:13:38;13.80;99.90
17252;DHT22;8742;51.716;8.790;2022-10-03T17:16:12;13.70;99.90
17252;DHT22;8742;51.716;8.790;2022-10-03T17:18:41;13.70;99.90
17252;DHT22;8742;51.716;8.790;2022-10-03T17:21:18;13.60;99.90
17252;DHT22;8742;51.716;8.790;2022-10-03T17:23:55;13.60;99.90
17252;DHT22;8742;51.716;8.790;2022-10-03T17:26:27;13.50;99.90
17252;DHT22;8742;51.716;8.790;2022-10-03T17:29:03;13.50;99.90
17252;DHT22;8742;51.716;8.790;2022-10-03T17:31:38;13.50;99.90
17252;DHT22;8742;51.716;8.790;2022-10-03T17:34:11;13.40;99.90
17252;DHT22;8742;51.716;8.790;2022-10-03T17:36:57;13.30;99.90
17252;DHT22;8742;51.716;8.790;2022-10-03T17:39:37;13.30;99.90
17252;DHT22;8742;51.716;8.790;2022-10-03T17:42:15;13.20;99.90
17252;DHT22;8742;51.716;8.790;2022-10-03T17:44:55;13.20;99.90
17252;DHT22;8742;51.716;8.790;2022-10-03T17:47:29;13.10;99.90
17252;DHT22;8742;51.716;8.790;2022-10-03T17:50:04;13.10;99.90
17252;DHT22;8742;51.716;8.790;2022-10-03T17:52:32;13.00;99.90
17252;DHT22;8742;51.716;8.790;2022-10-03T17:55:09;12.90;99.90
17252;DHT22;8742;51.716;8.790;2022-10-03T17:57:42;12.90;99.90
17252;DHT22;8742;51.716;8.790;2022-10-03T18:00:18;12.90;99.90
17252;DHT22;8742;51.716;8.790;2022-10-03T18:02:53;12.80;99.90
17252;DHT22;8742;51.716;8.790;2022-10-03T18:05:25;12.80;99.90
17252;DHT22;8742;51.716;8.790;2022-10-03T18:07:53;12.70;99.90
17252;DHT22;8742;51.716;8.790;2022-10-03T18:10:23;12.70;99.90
17252;DHT22;8742;51.716;8.790;2022-10-03T18:12:54;12.60;99.90
17252;DHT22;8742;51.716;8.790;2022-10-03T18:15:40;12.60;99.90
17252;DHT22;8742;51.716;8.790;2022-10-03T18:18:41;12.60;99.90
17252;DHT22;8742;51.716;8.790;2022-10-03T18:21:16;12.50;99.90
17252;DHT22;8742;51.716;8.790;2022-10-03T18:23:57;12.50;99.90
17252;DHT22;8742;51.716;8.790;2022-10-03T18:26:33;12.50;99.90
17252;DHT22;8742;51.716;8.790;2022-10-03T18:29:18;12.50;99.90
17252;DHT22;8742;51.716;8.790;2022-10-03T18:31:51;12.40;99.90
17252;DHT22;8742;51.716;8.790;2022-10-03T18:34:25;12.40;99.90
17252;DHT22;8742;51.716;8.790;2022-10-03T18:36:54;12.30;99.90
17252;DHT22;8742;51.716;8.790;2022-10-03T18:39:24;12.30;99.90
17252;DHT22;8742;51.716;8.790;2022-10-03T18:41:55;12.30;99.90
17252;DHT22;8742;51.716;8.790;2022-10-03T18:44:25;12.20;99.90
17252;DHT22;8742;51.716;8.790;2022-10-03T18:47:01;12.20;99.90
17252;DHT22;8742;51.716;8.790;2022-10-03T18:49:32;12.20;99.90
17252;DHT22;8742;51.716;8.790;2022-10-03T18:52:05;12.10;99.90
17252;DHT22;8742;51.716;8.790;2022-10-03T18:54:43;12.10;99.90
17252;DHT22;8742;51.716;8.790;2022-10-03T18:57:17;12.10;99.90
17252;DHT22;8742;51.716;8.790;2022-10-03T18:59:51;12.00;99.90
17252;DHT22;8742;51.716;8.790;2022-10-03T19:02:25;12.00;99.90
17252;DHT22;8742;51.716;8.790;2022-10-03T19:04:57;12.00;99.90
17252;DHT22;8742;51.716;8.790;2022-10-03T19:07:27;11.90;99.90
17252;DHT22;8742;51.716;8.790;2022-10-03T19:13:06;11.80;99.90
17252;DHT22;8742;51.716;8.790;2022-10-03T19:15:48;11.80;99.90
17252;DHT22;8742;51.716;8.790;2022-10-03T19:18:23;11.80;99.90
17252;DHT22;8742;51.716;8.790;2022-10-03T19:20:54;11.70;99.90
17252;DHT22;8742;51.716;8.790;2022-10-03T19:23:24;11.70;99.90
17252;DHT22;8742;51.716;8.790;2022-10-03T19:25:54;11.70;99.90
17252;DHT22;8742;51.716;8.790;2022-10-03T19:28:26;11.70;99.90
17252;DHT22;8742;51.716;8.790;2022-10-03T19:30:59;11.70;99.90
17252;DHT22;8742;51.716;8.790;2022-10-03T19:33:32;11.60;99.90
17252;DHT22;8742;51.716;8.790;2022-10-03T19:36:03;11.60;99.90
17252;DHT22;8742;51.716;8.790;2022-10-03T19:38:34;11.60;99.90
17252;DHT22;8742;51.716;8.790;2022-10-03T19:41:06;11.50;99.90
17252;DHT22;8742;51.716;8.790;2022-10-03T19:43:40;11.50;99.90
17252;DHT22;8742;51.716;8.790;2022-10-03T19:52:16;11.40;99.90